sensor_id;sensor_type;location;lat;lon;timestamp;pressure;altitude;pressure_sealevel;temperature;humidity
18755;BME280;35061;47.664;9.166;2023-03-25T00:00:54;101235.84;;;8.08;89.04
18755;BME280;35061;47.664;9.166;2023-03-25T00:03:26;101237.90;;;8.08;87.25
18755;BME280;35061;47.664;9.166;2023-03-25T00:05:56;101244.84;;;8.07;84.58
18755;BME280;35061;47.664;9.166;2023-03-25T00:08:25;101250.85;;;8.00;84.97
18755;BME280;35061;47.664;9.166;2023-03-25T00:10:56;101242.55;;;7.92;83.53
18755;BME280;35061;47.664;9.166;2023-03-25T00:13:25;101208.57;;;7.85;83.99
18755;BME280;35061;47.664;9.166;2023-03-25T00:15:53;101211.91;;;7.84;83.93
18755;BME280;35061;47.664;9.166;2023-03-25T00:18:27;101188.91;;;7.78;85.97
18755;BME280;35061;47.664;9.166;2023-03-25T00:21:01;101175.22;;;7.73;85.13
18755;BME280;35061;47.664;9.166;2023-03-25T00:23:30;101156.67;;;7.68;84.18
18755;BME280;35061;47.664;9.166;2023-03-25T00:25:58;101154.62;;;7.68;84.02
18755;BME280;35061;47.664;9.166;2023-03-25T00:28:33;101157.16;;;7.66;84.36
18755;BME280;35061;47.664;9.166;2023-03-25T00:31:05;101144.41;;;7.58;84.28
18755;BME280;35061;47.664;9.166;2023-03-25T00:33:33;101157.43;;;7.59;84.00
18755;BME280;35061;47.664;9.166;2023-03-25T00:36:02;101151.38;;;7.57;84.05
18755;BME280;35061;47.664;9.166;2023-03-25T00:38:33;101156.28;;;7.57;84.09
18755;BME280;35061;47.664;9.166;2023-03-25T00:41:22;101163.25;;;7.56;84.45
18755;BME280;35061;47.664;9.166;2023-03-25T00:43:53;101150.69;;;7.53;84.77
18755;BME280;35061;47.664;9.166;2023-03-25T00:46:23;101163.97;;;7.47;85.25
18755;BME280;35061;47.664;9.166;2023-03-25T00:48:54;101173.32;;;7.47;85.06
18755;BME280;35061;47.664;9.166;2023-03-25T00:51:23;101176.66;;;7.46;85.47
18755;BME280;35061;47.664;9.166;2023-03-25T00:53:54;101187.71;;;7.44;85.72
18755;BME280;35061;47.664;9.166;2023-03-25T00:56:23;101218.12;;;7.47;84.88
18755;BME280;35061;47.664;9.166;2023-03-25T00:58:51;101220.37;;;7.52;87.10
18755;BME280;35061;47.664;9.166;2023-03-25T01:01:22;101221.29;;;7.49;88.10
18755;BME280;35061;47.664;9.166;2023-03-25T01:03:55;101215.41;;;7.43;89.77
18755;BME280;35061;47.664;9.166;2023-03-25T01:06:31;101209.81;;;7.39;90.08
18755;BME280;35061;47.664;9.166;2023-03-25T01:09:02;101201.87;;;7.34;90.08
18755;BME280;35061;47.664;9.166;2023-03-25T01:11:33;101211.32;;;7.31;90.52
18755;BME280;35061;47.664;9.166;2023-03-25T01:14:02;101191.53;;;7.28;90.17
18755;BME280;35061;47.664;9.166;2023-03-25T01:16:32;101188.33;;;7.25;90.77
18755;BME280;35061;47.664;9.166;2023-03-25T01:19:00;101185.98;;;7.24;90.20
18755;BME280;35061;47.664;9.166;2023-03-25T01:21:28;101194.97;;;7.22;89.96
18755;BME280;35061;47.664;9.166;2023-03-25T01:23:56;101194.51;;;7.24;89.29
18755;BME280;35061;47.664;9.166;2023-03-25T01:26:24;101189.24;;;7.22;88.54
18755;BME280;35061;47.664;9.166;2023-03-25T01:28:52;101192.45;;;7.24;87.81
18755;BME280;35061;47.664;9.166;2023-03-25T01:31:20;101181.85;;;7.25;87.43
18755;BME280;35061;47.664;9.166;2023-03-25T01:33:57;101157.91;;;7.22;86.96
18755;BME280;35061;47.664;9.166;2023-03-25T01:36:25;101168.87;;;7.24;86.62
18755;BME280;35061;47.664;9.166;2023-03-25T01:38:57;101167.27;;;7.23;86.73
18755;BME280;35061;47.664;9.166;2023-03-25T01:41:27;101166.13;;;7.20;85.98
18755;BME280;35061;47.664;9.166;2023-03-25T01:46:45;101163.41;;;7.17;85.65
18755;BME280;35061;47.664;9.166;2023-03-25T01:49:20;101162.95;;;7.18;85.29
18755;BME280;35061;47.664;9.166;2023-03-25T01:51:54;101161.81;;;7.16;85.59
18755;BME280;35061;47.664;9.166;2023-03-25T01:54:23;101150.10;;;7.14;85.38
18755;BME280;35061;47.664;9.166;2023-03-25T01:56:52;101151.38;;;7.12;85.12
18755;BME280;35061;47.664;9.166;2023-03-25T01:59:23;101156.58;;;7.14;85.25
18755;BME280;35061;47.664;9.166;2023-03-25T02:01:54;101155.43;;;7.11;84.84
18755;BME280;35061;47.664;9.166;2023-03-25T02:04:34;101162.40;;;7.10;85.00
18755;BME280;35061;47.664;9.166;2023-03-25T02:07:06;101151.48;;;7.09;84.53
18755;BME280;35061;47.664;9.166;2023-03-25T02:09:38;101161.29;;;7.08;84.94
18755;BME280;35061;47.664;9.166;2023-03-25T02:12:06;101162.56;;;7.07;84.31
18755;BME280;35061;47.664;9.166;2023-03-25T02:14:35;101165.05;;;7.05;84.52
18755;BME280;35061;47.664;9.166;2023-03-25T02:17:26;101169.46;;;7.06;84.58
18755;BME280;35061;47.664;9.166;2023-03-25T02:22:58;101158.90;;;7.06;84.49
18755;BME280;35061;47.664;9.166;2023-03-25T02:28:41;101156.38;;;7.08;83.79
18755;BME280;35061;47.664;9.166;2023-03-25T02:33:46;101148.14;;;7.10;83.81
18755;BME280;35061;47.664;9.166;2023-03-25T02:37:01;101147.72;;;7.12;83.35
18755;BME280;35061;47.664;9.166;2023-03-25T02:40:26;101141.57;;;7.14;82.85
18755;BME280;35061;47.664;9.166;2023-03-25T02:43:33;101139.05;;;7.16;83.11
18755;BME280;35061;47.664;9.166;2023-03-25T02:45:46;101147.91;;;7.18;82.91
18755;BME280;35061;47.664;9.166;2023-03-25T02:48:21;101158.38;;;7.21;83.04
18755;BME280;35061;47.664;9.166;2023-03-25T02:50:54;101160.77;;;7.22;83.17
18755;BME280;35061;47.664;9.166;2023-03-25T02:53:29;101155.40;;;7.24;83.26
18755;BME280;35061;47.664;9.166;2023-03-25T02:56:03;101162.23;;;7.27;83.21
18755;BME280;35061;47.664;9.166;2023-03-25T02:58:37;101154.95;;;7.26;83.24
18755;BME280;35061;47.664;9.166;2023-03-25T03:01:06;101157.33;;;7.28;83.17
18755;BME280;35061;47.664;9.166;2023-03-25T03:03:36;101160.20;;;7.28;83.38
18755;BME280;35061;47.664;9.166;2023-03-25T03:06:06;101160.20;;;7.28;83.22
18755;BME280;35061;47.664;9.166;2023-03-25T03:11:32;101171.91;;;7.30;83.12
18755;BME280;35061;47.664;9.166;2023-03-25T03:17:06;101174.30;;;7.31;82.68
18755;BME280;35061;47.664;9.166;2023-03-25T03:22:29;101164.23;;;7.39;82.52
18755;BME280;35061;47.664;9.166;2023-03-25T03:28:03;101169.79;;;7.43;82.40
18755;BME280;35061;47.664;9.166;2023-03-25T03:36:01;101210.37;;;7.47;84.41
18755;BME280;35061;47.664;9.166;2023-03-25T03:38:35;101230.09;;;7.42;85.43
18755;BME280;35061;47.664;9.166;2023-03-25T03:41:07;101257.20;;;7.24;85.99
18755;BME280;35061;47.664;9.166;2023-03-25T03:44:21;101276.00;;;6.95;88.90
18755;BME280;35061;47.664;9.166;2023-03-25T03:49:01;101286.69;;;6.39;89.87
18755;BME280;35061;47.664;9.166;2023-03-25T03:51:36;101299.87;;;6.20;90.15
18755;BME280;35061;47.664;9.166;2023-03-25T03:54:10;101307.29;;;6.01;90.19
18755;BME280;35061;47.664;9.166;2023-03-25T03:56:43;101316.45;;;5.92;90.34
18755;BME280;35061;47.664;9.166;2023-03-25T03:59:17;101318.70;;;5.84;90.21
18755;BME280;35061;47.664;9.166;2023-03-25T04:01:51;101331.06;;;5.78;90.00
18755;BME280;35061;47.664;9.166;2023-03-25T04:04:25;101332.66;;;5.79;90.03
18755;BME280;35061;47.664;9.166;2023-03-25T04:07:02;101326.16;;;5.78;90.33
18755;BME280;35061;47.664;9.166;2023-03-25T04:09:36;101307.42;;;5.81;90.14
18755;BME280;35061;47.664;9.166;2023-03-25T04:12:17;101310.73;;;5.79;91.09
18755;BME280;35061;47.664;9.166;2023-03-25T04:14:47;101304.22;;;5.79;90.76
18755;BME280;35061;47.664;9.166;2023-03-25T04:17:15;101290.95;;;5.76;90.70
18755;BME280;35061;47.664;9.166;2023-03-25T04:19:44;101304.67;;;5.77;90.41
18755;BME280;35061;47.664;9.166;2023-03-25T04:22:16;101293.43;;;5.73;89.98
18755;BME280;35061;47.664;9.166;2023-03-25T04:24:45;101300.69;;;5.75;90.32
18755;BME280;35061;47.664;9.166;2023-03-25T04:27:17;101296.37;;;5.70;89.99
18755;BME280;35061;47.664;9.166;2023-03-25T04:29:45;101294.37;;;5.67;90.15
18755;BME280;35061;47.664;9.166;2023-03-25T04:32:14;101297.71;;;5.65;90.35
18755;BME280;35061;47.664;9.166;2023-03-25T04:34:42;101301.41;;;5.62;90.25
18755;BME280;35061;47.664;9.166;2023-03-25T04:37:10;101268.58;;;5.61;90.22
18755;BME280;35061;47.664;9.166;2023-03-25T04:39:38;101272.20;;;5.62;90.36
18755;BME280;35061;47.664;9.166;2023-03-25T04:42:08;101305.16;;;5.59;90.78
18755;BME280;35061;47.664;9.166;2023-03-25T04:44:40;101310.92;;;5.55;90.71
18755;BME280;35061;47.664;9.166;2023-03-25T04:47:11;101310.13;;;5.55;90.75
18755;BME280;35061;47.664;9.166;2023-03-25T04:49:41;101304.12;;;5.53;90.59
18755;BME280;35061;47.664;9.166;2023-03-25T04:52:11;101307.81;;;5.50;90.71
18755;BME280;35061;47.664;9.166;2023-03-25T04:54:39;101302.48;;;5.52;90.40
18755;BME280;35061;47.664;9.166;2023-03-25T04:57:07;101302.06;;;5.53;90.10
18755;BME280;35061;47.664;9.166;2023-03-25T04:59:35;101304.55;;;5.51;89.86
18755;BME280;35061;47.664;9.166;2023-03-25T05:02:04;101309.88;;;5.49;89.82
18755;BME280;35061;47.664;9.166;2023-03-25T05:04:33;101307.06;;;5.49;89.91
18755;BME280;35061;47.664;9.166;2023-03-25T05:07:01;101322.04;;;5.50;89.70
18755;BME280;35061;47.664;9.166;2023-03-25T05:09:29;101333.06;;;5.48;90.06
18755;BME280;35061;47.664;9.166;2023-03-25T05:11:58;101329.43;;;5.47;89.66
18755;BME280;35061;47.664;9.166;2023-03-25T05:14:26;101332.70;;;5.45;89.62
18755;BME280;35061;47.664;9.166;2023-03-25T05:16:54;101334.40;;;5.43;89.63
18755;BME280;35061;47.664;9.166;2023-03-25T05:19:24;101333.48;;;5.46;89.48
18755;BME280;35061;47.664;9.166;2023-03-25T05:21:52;101329.30;;;5.51;89.75
18755;BME280;35061;47.664;9.166;2023-03-25T05:24:22;101334.14;;;5.54;89.71
18755;BME280;35061;47.664;9.166;2023-03-25T05:26:50;101318.31;;;5.53;89.37
18755;BME280;35061;47.664;9.166;2023-03-25T05:29:18;101325.60;;;5.54;89.43
18755;BME280;35061;47.664;9.166;2023-03-25T05:31:46;101324.69;;;5.57;89.15
18755;BME280;35061;47.664;9.166;2023-03-25T05:34:15;101329.95;;;5.58;88.98
18755;BME280;35061;47.664;9.166;2023-03-25T05:36:43;101330.28;;;5.61;89.10
18755;BME280;35061;47.664;9.166;2023-03-25T05:39:11;101336.76;;;5.61;88.97
18755;BME280;35061;47.664;9.166;2023-03-25T05:41:39;101327.37;;;5.64;89.19
18755;BME280;35061;47.664;9.166;2023-03-25T05:44:08;101342.70;;;5.67;89.02
18755;BME280;35061;47.664;9.166;2023-03-25T05:46:36;101332.93;;;5.68;88.95
18755;BME280;35061;47.664;9.166;2023-03-25T05:49:04;101339.44;;;5.68;88.99
18755;BME280;35061;47.664;9.166;2023-03-25T05:51:33;101334.07;;;5.70;89.26
18755;BME280;35061;47.664;9.166;2023-03-25T05:54:04;101337.64;;;5.75;89.28
18755;BME280;35061;47.664;9.166;2023-03-25T05:56:38;101344.47;;;5.77;89.16
18755;BME280;35061;47.664;9.166;2023-03-25T05:59:06;101332.21;;;5.80;89.23
18755;BME280;35061;47.664;9.166;2023-03-25T06:01:35;101349.15;;;5.84;89.17
18755;BME280;35061;47.664;9.166;2023-03-25T06:04:08;101352.38;;;5.86;88.95
18755;BME280;35061;47.664;9.166;2023-03-25T06:06:36;101356.70;;;5.91;88.98
18755;BME280;35061;47.664;9.166;2023-03-25T06:09:05;101368.87;;;5.91;88.84
18755;BME280;35061;47.664;9.166;2023-03-25T06:11:33;101369.59;;;5.95;88.88
18755;BME280;35061;47.664;9.166;2023-03-25T06:14:05;101372.79;;;5.97;88.59
18755;BME280;35061;47.664;9.166;2023-03-25T06:16:33;101367.88;;;5.98;88.73
18755;BME280;35061;47.664;9.166;2023-03-25T06:19:02;101381.33;;;5.97;88.82
18755;BME280;35061;47.664;9.166;2023-03-25T06:21:32;101375.96;;;5.99;88.84
18755;BME280;35061;47.664;9.166;2023-03-25T06:24:01;101373.58;;;5.98;89.21
18755;BME280;35061;47.664;9.166;2023-03-25T06:26:29;101363.02;;;5.98;89.17
18755;BME280;35061;47.664;9.166;2023-03-25T06:28:57;101366.91;;;6.05;89.63
18755;BME280;35061;47.664;9.166;2023-03-25T06:31:25;101359.45;;;6.11;89.39
18755;BME280;35061;47.664;9.166;2023-03-25T06:33:54;101354.09;;;6.13;89.40
18755;BME280;35061;47.664;9.166;2023-03-25T06:36:23;101352.74;;;6.18;89.47
18755;BME280;35061;47.664;9.166;2023-03-25T06:38:52;101344.11;;;6.21;89.42
18755;BME280;35061;47.664;9.166;2023-03-25T06:41:20;101344.80;;;6.25;89.55
18755;BME280;35061;47.664;9.166;2023-03-25T06:43:51;101350.62;;;6.35;89.81
18755;BME280;35061;47.664;9.166;2023-03-25T06:46:20;101350.88;;;6.40;89.63
18755;BME280;35061;47.664;9.166;2023-03-25T06:48:47;101353.86;;;6.50;89.83
18755;BME280;35061;47.664;9.166;2023-03-25T06:51:16;101344.66;;;6.59;89.49
18755;BME280;35061;47.664;9.166;2023-03-25T06:53:44;101333.38;;;6.68;89.42
18755;BME280;35061;47.664;9.166;2023-03-25T06:56:12;101338.09;;;6.75;89.45
18755;BME280;35061;47.664;9.166;2023-03-25T06:58:42;101329.66;;;6.84;89.23
18755;BME280;35061;47.664;9.166;2023-03-25T07:01:10;101327.40;;;6.92;89.25
18755;BME280;35061;47.664;9.166;2023-03-25T07:03:38;101326.36;;;6.98;88.47
18755;BME280;35061;47.664;9.166;2023-03-25T07:06:06;101325.67;;;7.07;88.71
18755;BME280;35061;47.664;9.166;2023-03-25T07:08:34;101333.74;;;7.22;88.82
18755;BME280;35061;47.664;9.166;2023-03-25T07:11:06;101333.29;;;7.36;88.48
18755;BME280;35061;47.664;9.166;2023-03-25T07:13:34;101338.98;;;7.49;88.09
18755;BME280;35061;47.664;9.166;2023-03-25T07:16:02;101345.87;;;7.61;87.57
18755;BME280;35061;47.664;9.166;2023-03-25T07:18:31;101345.98;;;7.71;87.38
18755;BME280;35061;47.664;9.166;2023-03-25T07:20:59;101347.32;;;7.79;86.81
18755;BME280;35061;47.664;9.166;2023-03-25T07:23:26;101345.81;;;7.87;87.22
18755;BME280;35061;47.664;9.166;2023-03-25T07:25:54;101344.05;;;8.03;87.03
18755;BME280;35061;47.664;9.166;2023-03-25T07:28:23;101343.66;;;8.14;86.72
18755;BME280;35061;47.664;9.166;2023-03-25T07:30:51;101354.34;;;8.22;84.83
18755;BME280;35061;47.664;9.166;2023-03-25T07:33:19;101348.49;;;8.26;85.50
18755;BME280;35061;47.664;9.166;2023-03-25T07:35:47;101344.11;;;8.34;85.12
18755;BME280;35061;47.664;9.166;2023-03-25T07:38:15;101341.46;;;8.40;84.28
18755;BME280;35061;47.664;9.166;2023-03-25T07:40:45;101335.77;;;8.40;82.58
18755;BME280;35061;47.664;9.166;2023-03-25T07:43:16;101329.30;;;8.49;83.41
18755;BME280;35061;47.664;9.166;2023-03-25T07:45:43;101331.91;;;8.56;82.08
18755;BME280;35061;47.664;9.166;2023-03-25T07:48:12;101325.48;;;8.65;81.78
18755;BME280;35061;47.664;9.166;2023-03-25T07:50:43;101331.98;;;8.75;82.03
18755;BME280;35061;47.664;9.166;2023-03-25T07:53:12;101334.83;;;8.97;83.75
18755;BME280;35061;47.664;9.166;2023-03-25T07:55:40;101338.16;;;9.64;81.92
18755;BME280;35061;47.664;9.166;2023-03-25T07:58:08;101331.36;;;10.27;77.96
18755;BME280;35061;47.664;9.166;2023-03-25T08:00:36;101322.89;;;11.04;75.64
18755;BME280;35061;47.664;9.166;2023-03-25T08:03:04;101319.13;;;11.22;74.29
18755;BME280;35061;47.664;9.166;2023-03-25T08:05:33;101322.53;;;11.11;71.58
18755;BME280;35061;47.664;9.166;2023-03-25T08:08:04;101323.71;;;10.95;72.93
18755;BME280;35061;47.664;9.166;2023-03-25T08:10:32;101324.39;;;10.81;72.05
18755;BME280;35061;47.664;9.166;2023-03-25T08:13:01;101325.73;;;10.61;71.23
18755;BME280;35061;47.664;9.166;2023-03-25T08:15:29;101324.20;;;10.41;72.03
18755;BME280;35061;47.664;9.166;2023-03-25T08:17:57;101327.66;;;10.36;72.72
18755;BME280;35061;47.664;9.166;2023-03-25T08:20:25;101322.92;;;10.24;72.97
18755;BME280;35061;47.664;9.166;2023-03-25T08:22:53;101325.31;;;10.07;71.89
18755;BME280;35061;47.664;9.166;2023-03-25T08:25:24;101316.58;;;9.91;72.90
18755;BME280;35061;47.664;9.166;2023-03-25T08:27:52;101311.97;;;9.85;73.30
18755;BME280;35061;47.664;9.166;2023-03-25T08:30:21;101309.13;;;9.75;73.35
18755;BME280;35061;47.664;9.166;2023-03-25T08:32:49;101322.76;;;9.62;72.72
18755;BME280;35061;47.664;9.166;2023-03-25T08:35:22;101311.77;;;9.51;72.27
18755;BME280;35061;47.664;9.166;2023-03-25T08:37:50;101312.27;;;9.40;71.84
18755;BME280;35061;47.664;9.166;2023-03-25T08:40:18;101309.65;;;9.24;72.00
18755;BME280;35061;47.664;9.166;2023-03-25T08:42:46;101320.77;;;9.21;74.14
18755;BME280;35061;47.664;9.166;2023-03-25T08:45:14;101330.25;;;9.09;74.82
18755;BME280;35061;47.664;9.166;2023-03-25T08:47:42;101322.73;;;8.93;75.66
18755;BME280;35061;47.664;9.166;2023-03-25T08:50:10;101345.23;;;8.82;76.81
18755;BME280;35061;47.664;9.166;2023-03-25T08:52:39;101327.24;;;8.72;77.27
18755;BME280;35061;47.664;9.166;2023-03-25T08:55:09;101351.14;;;8.65;78.21
18755;BME280;35061;47.664;9.166;2023-03-25T08:57:37;101360.59;;;8.52;80.21
18755;BME280;35061;47.664;9.166;2023-03-25T09:00:06;101359.32;;;8.31;81.09
18755;BME280;35061;47.664;9.166;2023-03-25T09:02:42;101348.79;;;8.06;82.56
18755;BME280;35061;47.664;9.166;2023-03-25T09:05:11;101362.85;;;7.78;83.03
18755;BME280;35061;47.664;9.166;2023-03-25T09:07:39;101352.84;;;7.60;83.58
18755;BME280;35061;47.664;9.166;2023-03-25T09:10:08;101351.38;;;7.43;84.71
18755;BME280;35061;47.664;9.166;2023-03-25T09:12:36;101338.16;;;7.36;85.52
18755;BME280;35061;47.664;9.166;2023-03-25T09:15:04;101355.95;;;7.40;85.95
18755;BME280;35061;47.664;9.166;2023-03-25T09:17:32;101354.12;;;7.46;87.06
18755;BME280;35061;47.664;9.166;2023-03-25T09:20:00;101363.14;;;7.45;90.09
18755;BME280;35061;47.664;9.166;2023-03-25T09:22:28;101356.96;;;7.46;90.22
18755;BME280;35061;47.664;9.166;2023-03-25T09:24:56;101349.90;;;7.51;90.64
18755;BME280;35061;47.664;9.166;2023-03-25T09:27:24;101345.42;;;7.63;89.64
18755;BME280;35061;47.664;9.166;2023-03-25T09:29:52;101353.59;;;7.74;90.67
18755;BME280;35061;47.664;9.166;2023-03-25T09:32:20;101352.55;;;7.80;90.56
18755;BME280;35061;47.664;9.166;2023-03-25T09:34:48;101341.10;;;7.93;90.62
18755;BME280;35061;47.664;9.166;2023-03-25T09:37:17;101355.33;;;8.06;90.75
18755;BME280;35061;47.664;9.166;2023-03-25T09:39:45;101358.83;;;8.10;90.21
18755;BME280;35061;47.664;9.166;2023-03-25T09:42:29;101354.19;;;8.04;90.02
18755;BME280;35061;47.664;9.166;2023-03-25T09:45:04;101352.58;;;8.03;91.38
18755;BME280;35061;47.664;9.166;2023-03-25T09:47:40;101341.43;;;7.95;90.94
18755;BME280;35061;47.664;9.166;2023-03-25T09:50:14;101337.34;;;7.96;91.57
18755;BME280;35061;47.664;9.166;2023-03-25T09:52:59;101328.77;;;7.96;91.95
18755;BME280;35061;47.664;9.166;2023-03-25T09:55:32;101327.66;;;7.94;91.89
18755;BME280;35061;47.664;9.166;2023-03-25T09:58:14;101321.45;;;7.95;92.63
18755;BME280;35061;47.664;9.166;2023-03-25T10:01:29;101330.90;;;8.05;93.45
18755;BME280;35061;47.664;9.166;2023-03-25T10:03:56;101328.13;;;8.15;93.08
18755;BME280;35061;47.664;9.166;2023-03-25T10:06:25;101336.88;;;8.20;94.04
18755;BME280;35061;47.664;9.166;2023-03-25T10:09:22;101329.92;;;8.21;92.75
18755;BME280;35061;47.664;9.166;2023-03-25T10:12:32;101330.64;;;8.13;92.52
18755;BME280;35061;47.664;9.166;2023-03-25T10:25:53;101317.56;;;8.47;98.26
18755;BME280;35061;47.664;9.166;2023-03-25T10:28:27;101310.79;;;8.54;95.69
18755;BME280;35061;47.664;9.166;2023-03-25T10:30:58;101321.19;;;8.47;96.08
18755;BME280;35061;47.664;9.166;2023-03-25T10:33:36;101316.09;;;8.42;95.92
18755;BME280;35061;47.664;9.166;2023-03-25T10:36:06;101309.05;;;8.34;96.22
18755;BME280;35061;47.664;9.166;2023-03-25T10:38:38;101325.93;;;8.19;96.69
18755;BME280;35061;47.664;9.166;2023-03-25T10:41:27;101324.20;;;7.99;96.93
18755;BME280;35061;47.664;9.166;2023-03-25T10:43:57;101329.59;;;7.84;97.46
18755;BME280;35061;47.664;9.166;2023-03-25T10:46:35;101340.88;;;7.65;98.61
18755;BME280;35061;47.664;9.166;2023-03-25T10:49:16;101341.23;;;7.42;98.92
18755;BME280;35061;47.664;9.166;2023-03-25T10:51:46;101357.12;;;7.17;99.97
18755;BME280;35061;47.664;9.166;2023-03-25T10:54:16;101346.40;;;6.95;100.00
18755;BME280;35061;47.664;9.166;2023-03-25T10:56:49;101364.29;;;6.82;100.00
18755;BME280;35061;47.664;9.166;2023-03-25T10:59:40;101361.87;;;6.68;100.00
18755;BME280;35061;47.664;9.166;2023-03-25T11:02:17;101364.22;;;6.56;100.00
18755;BME280;35061;47.664;9.166;2023-03-25T11:04:47;101362.39;;;6.50;100.00
18755;BME280;35061;47.664;9.166;2023-03-25T11:07:18;101357.39;;;6.41;100.00
18755;BME280;35061;47.664;9.166;2023-03-25T11:09:47;101359.97;;;6.35;100.00
18755;BME280;35061;47.664;9.166;2023-03-25T11:12:19;101365.95;;;6.24;100.00
18755;BME280;35061;47.664;9.166;2023-03-25T11:15:15;101367.43;;;6.16;100.00
18755;BME280;35061;47.664;9.166;2023-03-25T11:17:46;101363.44;;;6.13;100.00
18755;BME280;35061;47.664;9.166;2023-03-25T11:20:26;101360.23;;;6.11;100.00
18755;BME280;35061;47.664;9.166;2023-03-25T11:23:00;101368.96;;;6.04;100.00
18755;BME280;35061;47.664;9.166;2023-03-25T11:25:35;101365.30;;;6.04;100.00
18755;BME280;35061;47.664;9.166;2023-03-25T11:28:37;101366.91;;;6.05;100.00
18755;BME280;35061;47.664;9.166;2023-03-25T11:33:35;101373.64;;;6.11;100.00
18755;BME280;35061;47.664;9.166;2023-03-25T11:38:52;101350.72;;;6.31;100.00
18755;BME280;35061;47.664;9.166;2023-03-25T11:41:27;101361.15;;;6.38;100.00
18755;BME280;35061;47.664;9.166;2023-03-25T11:43:56;101369.68;;;6.51;100.00
18755;BME280;35061;47.664;9.166;2023-03-25T11:46:24;101369.72;;;6.64;100.00
18755;BME280;35061;47.664;9.166;2023-03-25T11:48:52;101362.82;;;6.78;100.00
18755;BME280;35061;47.664;9.166;2023-03-25T11:51:23;101374.23;;;6.91;100.00
18755;BME280;35061;47.664;9.166;2023-03-25T11:53:58;101372.17;;;7.04;100.00
18755;BME280;35061;47.664;9.166;2023-03-25T11:56:38;101377.86;;;7.17;100.00
18755;BME280;35061;47.664;9.166;2023-03-25T11:59:16;101362.49;;;7.28;100.00
18755;BME280;35061;47.664;9.166;2023-03-25T12:01:46;101353.56;;;7.38;100.00
18755;BME280;35061;47.664;9.166;2023-03-25T12:04:20;101351.47;;;7.52;100.00
18755;BME280;35061;47.664;9.166;2023-03-25T12:07:00;101350.09;;;7.70;100.00
18755;BME280;35061;47.664;9.166;2023-03-25T12:09:32;101330.41;;;7.85;99.38
18755;BME280;35061;47.664;9.166;2023-03-25T12:20:11;101333.02;;;8.36;96.54
18755;BME280;35061;47.664;9.166;2023-03-25T12:25:15;101313.99;;;8.56;94.53
18755;BME280;35061;47.664;9.166;2023-03-25T12:27:55;101313.70;;;8.63;93.40
18755;BME280;35061;47.664;9.166;2023-03-25T12:36:23;101299.70;;;8.97;92.85
18755;BME280;35061;47.664;9.166;2023-03-25T12:41:52;101299.02;;;9.24;92.42
18755;BME280;35061;47.664;9.166;2023-03-25T12:47:18;101289.54;;;9.37;90.51
18755;BME280;35061;47.664;9.166;2023-03-25T12:50:00;101272.40;;;9.46;90.29
18755;BME280;35061;47.664;9.166;2023-03-25T12:52:42;101280.97;;;9.55;89.38
18755;BME280;35061;47.664;9.166;2023-03-25T12:55:41;101283.06;;;9.64;89.50
18755;BME280;35061;47.664;9.166;2023-03-25T13:04:06;101282.57;;;9.94;87.61
18755;BME280;35061;47.664;9.166;2023-03-25T13:07:08;101286.52;;;10.15;85.51
18755;BME280;35061;47.664;9.166;2023-03-25T13:09:56;101277.73;;;10.28;85.68
18755;BME280;35061;47.664;9.166;2023-03-25T13:12:33;101284.56;;;10.49;84.66
18755;BME280;35061;47.664;9.166;2023-03-25T13:18:10;101250.95;;;10.59;81.20
18755;BME280;35061;47.664;9.166;2023-03-25T13:20:45;101267.01;;;10.66;80.71
18755;BME280;35061;47.664;9.166;2023-03-25T13:23:18;101257.45;;;10.69;80.87
18755;BME280;35061;47.664;9.166;2023-03-25T13:25:59;101256.02;;;10.73;81.20
18755;BME280;35061;47.664;9.166;2023-03-25T13:28:38;101259.32;;;10.81;81.48
18755;BME280;35061;47.664;9.166;2023-03-25T13:31:22;101253.08;;;10.83;78.76
18755;BME280;35061;47.664;9.166;2023-03-25T13:43:05;101239.93;;;11.00;77.17
18755;BME280;35061;47.664;9.166;2023-03-25T13:45:49;101247.26;;;11.01;77.05
18755;BME280;35061;47.664;9.166;2023-03-25T13:48:22;101248.40;;;10.95;73.46
18755;BME280;35061;47.664;9.166;2023-03-25T13:51:00;101249.22;;;10.95;75.15
18755;BME280;35061;47.664;9.166;2023-03-25T14:01:47;101240.68;;;11.10;73.15
18755;BME280;35061;47.664;9.166;2023-03-25T14:05:09;101245.78;;;11.06;71.64
18755;BME280;35061;47.664;9.166;2023-03-25T14:13:30;101229.40;;;11.07;72.79
18755;BME280;35061;47.664;9.166;2023-03-25T14:16:06;101219.69;;;11.04;71.61
18755;BME280;35061;47.664;9.166;2023-03-25T14:18:50;101228.42;;;11.10;71.90
18755;BME280;35061;47.664;9.166;2023-03-25T14:23:48;101225.80;;;11.21;69.06
18755;BME280;35061;47.664;9.166;2023-03-25T14:26:27;101234.99;;;11.25;70.28
18755;BME280;35061;47.664;9.166;2023-03-25T14:28:55;101232.44;;;11.27;68.28
18755;BME280;35061;47.664;9.166;2023-03-25T14:31:29;101225.90;;;11.27;68.92
18755;BME280;35061;47.664;9.166;2023-03-25T14:42:08;101248.73;;;11.45;64.42
18755;BME280;35061;47.664;9.166;2023-03-25T14:44:43;101239.63;;;11.47;63.80
18755;BME280;35061;47.664;9.166;2023-03-25T14:47:24;101236.27;;;11.49;64.59
18755;BME280;35061;47.664;9.166;2023-03-25T14:52:45;101229.76;;;11.48;63.92
18755;BME280;35061;47.664;9.166;2023-03-25T14:55:20;101218.19;;;11.42;62.43
18755;BME280;35061;47.664;9.166;2023-03-25T14:57:49;101215.50;;;11.39;62.67
18755;BME280;35061;47.664;9.166;2023-03-25T15:00:25;101218.05;;;11.37;61.97
18755;BME280;35061;47.664;9.166;2023-03-25T15:03:09;101221.88;;;11.34;62.40
18755;BME280;35061;47.664;9.166;2023-03-25T15:05:40;101222.86;;;11.30;62.10
18755;BME280;35061;47.664;9.166;2023-03-25T15:08:11;101232.64;;;11.24;61.28
18755;BME280;35061;47.664;9.166;2023-03-25T15:10:43;101231.23;;;11.19;60.84
18755;BME280;35061;47.664;9.166;2023-03-25T15:23:46;101307.91;;;10.57;69.88
18755;BME280;35061;47.664;9.166;2023-03-25T15:26:39;101299.87;;;9.99;72.09
18755;BME280;35061;47.664;9.166;2023-03-25T15:40:32;101268.41;;;9.43;80.32
18755;BME280;35061;47.664;9.166;2023-03-25T15:52:21;101261.41;;;9.44;82.28